Arcadia Lakes, South Carolina
Current Conditions -  °F | °C
As of 6:53 AM on Friday 31 Oct 2014 (Local Time) from KCUB Reporting Station
Clear Clear  
Wind Chill: 48°   Ceiling: Unl
Heat Index: 48°   Visibility: 10mi
Dew Point: 43°   Wind: 3mph
Humidity: 83%   Direction: 60°ENE
Pressure: 29.92"   Gusts: NA
Location:  34.025°N, 80.9562°W
Report Text: KCUB 311053Z AUTO 06003KT 10SM CLR 09/06 A2992 RMK AO2 SLP131 T00890061
Loading
Personal Weather Stations






























Interactive Weather Map
Tropical Storm Tracking
New forecast layout! Learn more

10-Day Weather Forecast

Advertisements
Track Severe Weather on mobile